Time;durP1;ratioP1;P1;durP2;ratioP2;P2;SDS_P1;SDS_P2;PMS_P1;PMS_P2;Temp;Humidity;BMP_temperature;BMP_pressure;BME280_temperature;BME280_humidity;BME280_pressure;Samples;Min_cycle;Max_cycle;Signal;HPM_P1;HPM_P2
2023/01/27 00:00:12;;;;;;;25.33;14.63;;;3.00;99.90;;;;;;5049700;28;20052;-40
2023/01/27 00:02:38;;;;;;;23.85;12.98;;;3.10;99.90;;;;;;5049709;28;20052;-40
2023/01/27 00:05:05;;;;;;;24.20;11.95;;;3.00;99.90;;;;;;5049628;28;20041;-40
2023/01/27 00:07:31;;;;;;;21.70;12.32;;;3.10;99.90;;;;;;5049936;28;20064;-40
2023/01/27 00:09:57;;;;;;;26.00;13.15;;;4.00;99.90;;;;;;5049318;28;20049;-40
2023/01/27 00:15:11;;;;;;;24.63;13.82;;;3.00;99.90;;;;;;5048976;28;20077;-40
2023/01/27 00:17:36;;;;;;;24.85;12.40;;;3.10;99.90;;;;;;5048594;28;20037;-40
2023/01/27 00:20:04;;;;;;;22.40;12.25;;;3.00;99.90;;;;;;5049101;28;20434;-40
2023/01/27 00:25:14;;;;;;;18.15;11.05;;;3.00;99.90;;;;;;5049185;28;20438;-40
2023/01/27 00:27:39;;;;;;;25.38;11.40;;;3.10;99.90;;;;;;5049132;28;20053;-40
2023/01/27 00:30:06;;;;;;;22.63;12.30;;;3.00;99.90;;;;;;5049002;28;20542;-40
2023/01/27 00:35:17;;;;;;;17.85;11.18;;;3.00;99.90;;;;;;5048597;28;20399;-40
2023/01/27 00:37:46;;;;;;;21.73;11.60;;;3.00;99.90;;;;;;5048747;28;20095;-40
2023/01/27 00:40:14;;;;;;;21.52;10.80;;;3.00;99.90;;;;;;5047584;28;20037;-40
2023/01/27 00:42:40;;;;;;;20.70;11.18;;;3.00;99.90;;;;;;5048672;28;20485;-40
2023/01/27 00:47:51;;;;;;;21.88;10.45;;;3.00;99.90;;;;;;5048704;28;20846;-40
2023/01/27 00:50:18;;;;;;;19.63;10.95;;;3.00;99.90;;;;;;5048057;28;20055;-40
2023/01/27 00:52:44;;;;;;;17.02;9.68;;;2.90;99.90;;;;;;5048585;28;20044;-40
2023/01/27 00:55:10;;;;;;;15.70;9.45;;;2.90;99.90;;;;;;5048372;28;20045;-40
2023/01/27 00:57:37;;;;;;;18.90;10.05;;;3.00;99.90;;;;;;5047513;28;20072;-40
2023/01/27 01:00:04;;;;;;;20.10;10.80;;;3.60;99.90;;;;;;5047421;28;20040;-40
2023/01/27 01:02:30;;;;;;;17.38;9.27;;;3.00;99.90;;;;;;5048093;28;20041;-40
2023/01/27 01:04:56;;;;;;;15.52;8.20;;;3.00;99.90;;;;;;5047960;28;20041;-40
2023/01/27 01:07:22;;;;;;;19.05;9.68;;;3.90;99.90;;;;;;5048261;28;20041;-40
2023/01/27 01:09:48;;;;;;;15.32;8.32;;;3.00;99.90;;;;;;5048152;28;20041;-40
2023/01/27 01:12:13;;;;;;;12.63;8.55;;;2.90;99.90;;;;;;5047700;28;20535;-40
2023/01/27 01:14:39;;;;;;;18.33;9.48;;;3.50;99.90;;;;;;5047631;28;20056;-40
2023/01/27 01:17:05;;;;;;;15.43;9.27;;;3.00;99.90;;;;;;5030019;28;20048;-40
2023/01/27 01:19:30;;;;;;;16.55;9.57;;;3.00;99.90;;;;;;5047506;28;20051;-40
2023/01/27 01:21:56;;;;;;;15.80;9.60;;;3.00;99.90;;;;;;5047336;28;20040;-40
2023/01/27 01:24:22;;;;;;;19.10;10.55;;;3.00;99.90;;;;;;5047430;28;20080;-40
2023/01/27 01:26:48;;;;;;;18.00;11.02;;;3.00;99.90;;;;;;5047548;28;20062;-41
2023/01/27 01:29:13;;;;;;;19.67;11.32;;;3.00;99.90;;;;;;5047706;28;20115;-40
2023/01/27 01:31:39;;;;;;;20.77;12.18;;;3.00;99.90;;;;;;5047755;28;20487;-40
2023/01/27 01:34:05;;;;;;;21.00;11.45;;;3.10;99.90;;;;;;5046652;28;20037;-40
2023/01/27 01:36:32;;;;;;;25.73;12.82;;;3.00;99.90;;;;;;5046850;28;20153;-40
2023/01/27 01:38:57;;;;;;;22.00;11.82;;;3.00;99.90;;;;;;5046528;28;20076;-40
2023/01/27 01:41:24;;;;;;;19.17;10.45;;;3.00;99.90;;;;;;5046563;28;20041;-40
2023/01/27 01:43:50;;;;;;;14.65;8.70;;;3.00;99.90;;;;;;5046671;28;20141;-40
2023/01/27 01:46:17;;;;;;;14.88;7.90;;;3.00;99.90;;;;;;5046091;28;20044;-40
2023/01/27 01:48:53;;;;;;;11.10;6.10;;;3.00;99.90;;;;;;5047482;28;20479;-40
2023/01/27 01:51:31;;;;;;;9.23;5.75;;;3.10;99.90;;;;;;5047649;28;20037;-40
2023/01/27 01:54:02;;;;;;;9.63;5.40;;;3.00;99.90;;;;;;5047688;28;20041;-40
2023/01/27 01:56:46;;;;;;;6.85;4.82;;;3.00;99.90;;;;;;5047149;28;20052;-40
2023/01/27 01:59:18;;;;;;;10.30;4.97;;;4.00;99.90;;;;;;5047051;28;20768;-40
2023/01/27 02:01:44;;;;;;;10.03;5.03;;;3.00;99.90;;;;;;5029431;28;20049;-40
2023/01/27 02:04:15;;;;;;;13.82;5.22;;;3.00;99.90;;;;;;5046837;28;20037;-40
2023/01/27 02:07:25;;;;;;;12.98;6.13;;;3.00;99.90;;;;;;5028994;28;20052;-40
2023/01/27 02:09:50;;;;;;;10.63;4.82;;;3.10;99.90;;;;;;5001732;28;20506;-40
2023/01/27 02:12:16;;;;;;;10.18;5.57;;;3.50;99.90;;;;;;5047055;28;20043;-40
2023/01/27 02:14:42;;;;;;;9.93;4.93;;;3.00;99.90;;;;;;5046803;28;20041;-40
2023/01/27 02:17:10;;;;;;;10.98;4.80;;;3.00;99.90;;;;;;5046289;28;20040;-40
2023/01/27 02:19:54;;;;;;;8.93;4.13;;;3.00;99.90;;;;;;5046577;28;20052;-40
2023/01/27 02:22:32;;;;;;;8.38;4.45;;;3.10;99.90;;;;;;5046381;28;20048;-40
2023/01/27 02:25:26;;;;;;;9.32;4.15;;;3.10;99.90;;;;;;5046482;28;20045;-40
2023/01/27 02:27:52;;;;;;;10.27;4.32;;;3.10;99.90;;;;;;5008696;28;20566;-40
2023/01/27 02:30:18;;;;;;;8.25;4.50;;;3.00;99.90;;;;;;5046084;28;20045;-40
2023/01/27 02:32:44;;;;;;;7.38;3.85;;;3.00;99.90;;;;;;5046515;28;20052;-40
2023/01/27 02:35:15;;;;;;;9.82;3.65;;;3.00;99.90;;;;;;5045888;28;20571;-40
2023/01/27 02:37:41;;;;;;;4.97;3.00;;;2.90;99.90;;;;;;5047374;28;20064;-40
2023/01/27 02:40:09;;;;;;;7.50;3.45;;;3.00;99.90;;;;;;5046451;28;20099;-40
2023/01/27 02:42:35;;;;;;;6.55;3.40;;;3.10;99.90;;;;;;5045993;28;20094;-40
2023/01/27 02:45:01;;;;;;;6.95;4.00;;;3.00;99.90;;;;;;5045896;28;20037;-40
2023/01/27 02:47:26;;;;;;;5.18;3.80;;;3.00;99.90;;;;;;5046013;28;20072;-40
2023/01/27 02:49:53;;;;;;;3.63;2.88;;;3.00;99.90;;;;;;5045811;28;20059;-40
2023/01/27 02:52:19;;;;;;;7.30;2.90;;;3.00;99.90;;;;;;5045796;28;20049;-40
2023/01/27 02:54:45;;;;;;;5.72;3.00;;;3.00;99.90;;;;;;5046295;28;20044;-40
2023/01/27 02:57:11;;;;;;;4.82;3.00;;;2.90;99.90;;;;;;5045846;28;20471;-40
2023/01/27 02:59:36;;;;;;;6.35;3.33;;;2.90;99.90;;;;;;5045998;28;20182;-40
2023/01/27 03:02:02;;;;;;;6.22;2.38;;;2.90;99.90;;;;;;5046171;28;20116;-40
2023/01/27 03:04:28;;;;;;;5.57;2.55;;;2.90;99.90;;;;;;5045401;28;20092;-40
2023/01/27 03:06:54;;;;;;;5.60;2.58;;;2.90;99.90;;;;;;5027212;28;20469;-40
2023/01/27 03:09:20;;;;;;;3.95;2.08;;;2.90;99.90;;;;;;5045373;28;20045;-40
2023/01/27 03:19:59;;;;;;;4.60;2.40;;;2.90;99.90;;;;;;5045303;28;20514;-40
2023/01/27 03:22:25;;;;;;;5.78;2.47;;;2.90;99.90;;;;;;5044716;28;20040;-40
2023/01/27 03:24:51;;;;;;;6.72;2.10;;;3.00;99.90;;;;;;5045513;28;20032;-40
2023/01/27 03:27:17;;;;;;;5.82;2.88;;;2.80;99.90;;;;;;5045853;28;20148;-40
2023/01/27 03:29:55;;;;;;;5.03;2.92;;;2.90;99.90;;;;;;5027373;28;20529;-40
2023/01/27 03:32:30;;;;;;;5.90;2.50;;;2.90;99.90;;;;;;5045456;28;20052;-40
2023/01/27 03:34:56;;;;;;;8.02;2.63;;;2.90;99.90;;;;;;5045306;28;20118;-41
2023/01/27 03:48:23;;;;;;;5.93;2.40;;;2.90;99.90;;;;;;5045509;28;20092;-40
2023/01/27 03:50:54;;;;;;;3.95;2.10;;;2.90;99.90;;;;;;5045873;28;20080;-40
2023/01/27 03:53:20;;;;;;;5.80;2.00;;;2.90;99.90;;;;;;5045761;28;20091;-40
2023/01/27 03:55:46;;;;;;;3.25;1.75;;;2.80;99.90;;;;;;5045585;28;20059;-40
2023/01/27 03:58:20;;;;;;;3.78;2.00;;;2.80;99.90;;;;;;5045627;28;20048;-40
2023/01/27 04:00:49;;;;;;;7.25;3.35;;;2.90;99.90;;;;;;5045798;28;20094;-40
2023/01/27 04:08:53;;;;;;;7.38;2.33;;;2.90;99.90;;;;;;5045354;28;20128;-40
2023/01/27 04:14:04;;;;;;;6.00;2.33;;;2.70;99.90;;;;;;5045599;28;20136;-40
2023/01/27 04:16:30;;;;;;;4.07;1.70;;;2.80;99.90;;;;;;5027312;28;20049;-40
2023/01/27 04:18:57;;;;;;;6.25;2.30;;;2.70;99.90;;;;;;5045052;28;20110;-40
2023/01/27 04:21:24;;;;;;;5.60;2.30;;;2.70;99.90;;;;;;5045342;28;20132;-40
2023/01/27 04:23:51;;;;;;;5.38;2.28;;;2.70;99.90;;;;;;5045310;28;20142;-40
2023/01/27 04:26:16;;;;;;;6.18;2.10;;;2.70;99.90;;;;;;5044906;28;20051;-40
2023/01/27 04:28:42;;;;;;;5.35;1.75;;;3.20;99.90;;;;;;5044850;28;20037;-40
2023/01/27 04:31:08;;;;;;;5.22;2.28;;;2.70;99.90;;;;;;5045375;28;20045;-40
2023/01/27 04:33:34;;;;;;;4.60;2.30;;;2.70;99.90;;;;;;5047226;28;20049;-40
2023/01/27 04:35:59;;;;;;;2.83;1.85;;;2.70;99.90;;;;;;5048300;28;20140;-40
2023/01/27 04:38:25;;;;;;;4.45;2.03;;;2.70;99.90;;;;;;5048564;28;20048;-40
2023/01/27 04:40:51;;;;;;;4.57;2.42;;;2.80;99.90;;;;;;5047773;28;20099;-40
2023/01/27 04:43:17;;;;;;;4.45;2.03;;;2.70;99.90;;;;;;5047578;28;20064;-41
2023/01/27 04:45:42;;;;;;;5.32;2.17;;;2.70;99.90;;;;;;5047356;28;20153;-40
2023/01/27 04:48:08;;;;;;;7.65;2.67;;;4.40;99.90;;;;;;5047581;28;20052;-40
2023/01/27 04:50:34;;;;;;;5.45;2.38;;;2.70;99.90;;;;;;5048318;28;20044;-40
2023/01/27 04:53:00;;;;;;;11.50;4.18;;;2.70;99.90;;;;;;5048559;28;20203;-40
2023/01/27 04:55:26;;;;;;;5.75;2.88;;;2.70;99.90;;;;;;5048144;28;20510;-40
2023/01/27 04:57:52;;;;;;;5.85;2.47;;;2.70;99.90;;;;;;5048058;28;20060;-40
2023/01/27 05:00:19;;;;;;;4.18;2.72;;;2.70;99.90;;;;;;5047922;28;20051;-40
2023/01/27 05:02:45;;;;;;;8.13;3.45;;;2.70;99.90;;;;;;5048019;28;20790;-40
2023/01/27 05:05:10;;;;;;;9.32;2.80;;;2.70;99.90;;;;;;5048102;28;20056;-40
2023/01/27 05:07:38;;;;;;;6.45;2.80;;;2.70;99.90;;;;;;5048100;28;20083;-40
2023/01/27 05:10:04;;;;;;;4.50;2.85;;;2.70;99.90;;;;;;5030305;28;20053;-40
2023/01/27 05:12:30;;;;;;;5.53;2.70;;;2.80;99.90;;;;;;5048307;28;20048;-40
2023/01/27 05:14:56;;;;;;;4.32;2.33;;;2.70;99.90;;;;;;5048136;28;20041;-40
2023/01/27 05:17:21;;;;;;;6.35;2.53;;;2.70;99.90;;;;;;5047670;28;20056;-40
2023/01/27 05:19:47;;;;;;;6.78;2.58;;;2.70;99.90;;;;;;5047510;28;20049;-40
2023/01/27 05:22:13;;;;;;;6.10;2.90;;;2.70;99.90;;;;;;5048093;28;20041;-40
2023/01/27 05:24:38;;;;;;;4.45;2.38;;;2.70;99.90;;;;;;5046995;28;20032;-40
2023/01/27 05:27:04;;;;;;;3.20;1.92;;;2.70;99.90;;;;;;5047774;28;20053;-40
2023/01/27 05:29:30;;;;;;;5.38;2.50;;;2.70;99.90;;;;;;5047526;28;20056;-40
2023/01/27 05:31:56;;;;;;;6.40;2.20;;;2.60;99.90;;;;;;5047613;28;20055;-40
2023/01/27 05:34:22;;;;;;;3.78;1.85;;;2.70;99.90;;;;;;5047972;28;20041;-40
2023/01/27 05:36:48;;;;;;;6.35;2.28;;;2.70;99.90;;;;;;5047435;28;20114;-40
2023/01/27 05:39:14;;;;;;;7.95;2.63;;;2.60;99.90;;;;;;5047782;28;20053;-40
2023/01/27 05:41:39;;;;;;;7.28;3.03;;;2.60;99.90;;;;;;5047630;28;20436;-40
2023/01/27 05:44:05;;;;;;;6.15;2.60;;;2.60;99.90;;;;;;5046742;28;20052;-40
2023/01/27 05:46:32;;;;;;;8.40;3.00;;;2.60;99.90;;;;;;5047197;28;20049;-40
2023/01/27 05:49:04;;;;;;;4.93;2.42;;;2.60;99.90;;;;;;5047785;28;20083;-40
2023/01/27 05:51:32;;;;;;;6.93;2.15;;;2.60;99.90;;;;;;5047405;28;20040;-40
2023/01/27 05:53:58;;;;;;;8.40;2.80;;;2.60;99.90;;;;;;5047394;28;20560;-40
2023/01/27 05:56:25;;;;;;;7.05;2.50;;;2.70;99.90;;;;;;5047550;28;20040;-40
2023/01/27 05:58:53;;;;;;;5.90;2.67;;;4.10;99.90;;;;;;5047855;28;20057;-40
2023/01/27 06:01:27;;;;;;;5.07;2.35;;;2.50;99.90;;;;;;5048044;28;20051;-40
2023/01/27 06:03:54;;;;;;;5.60;2.70;;;2.50;99.90;;;;;;5047423;28;20039;-40
2023/01/27 06:06:21;;;;;;;6.82;2.50;;;2.60;99.90;;;;;;5047619;28;20045;-40
2023/01/27 06:08:48;;;;;;;6.13;2.63;;;2.90;99.90;;;;;;5047678;28;20037;-40
2023/01/27 06:11:16;;;;;;;3.97;2.38;;;2.60;99.90;;;;;;5047494;28;20043;-40
2023/01/27 06:13:41;;;;;;;6.38;2.70;;;2.50;99.90;;;;;;5047038;28;20095;-40
2023/01/27 06:16:09;;;;;;;4.90;2.70;;;2.50;99.90;;;;;;5047191;28;20077;-40
2023/01/27 06:18:36;;;;;;;9.25;2.78;;;2.50;99.90;;;;;;5046940;28;20037;-40
2023/01/27 06:21:04;;;;;;;6.28;2.92;;;3.30;99.90;;;;;;5046959;28;20047;-40
2023/01/27 06:23:30;;;;;;;6.45;3.20;;;2.60;99.90;;;;;;5047333;28;20558;-40
2023/01/27 06:26:01;;;;;;;8.38;2.95;;;2.50;99.90;;;;;;5046479;28;20081;-40
2023/01/27 06:28:26;;;;;;;5.40;2.55;;;2.50;99.90;;;;;;5046822;28;20041;-40
2023/01/27 06:30:52;;;;;;;7.07;2.67;;;2.50;99.90;;;;;;5046716;28;20387;-40
2023/01/27 06:33:18;;;;;;;11.55;2.85;;;2.40;99.90;;;;;;5046597;28;20041;-40
2023/01/27 06:35:44;;;;;;;8.35;3.13;;;2.50;99.90;;;;;;5046174;28;20505;-40
2023/01/27 06:38:13;;;;;;;5.80;3.00;;;2.50;99.90;;;;;;5046285;28;20131;-40
2023/01/27 06:40:39;;;;;;;6.30;3.03;;;2.50;99.90;;;;;;5046497;28;20049;-40
2023/01/27 06:43:15;;;;;;;5.47;2.90;;;2.40;99.90;;;;;;5046519;28;20037;-40
2023/01/27 06:45:40;;;;;;;9.38;3.08;;;2.50;99.90;;;;;;5046672;28;20044;-40
2023/01/27 06:48:07;;;;;;;9.63;3.30;;;2.40;99.90;;;;;;5046599;28;20048;-40
2023/01/27 06:50:32;;;;;;;4.90;3.38;;;2.50;99.90;;;;;;5046603;28;20128;-40
2023/01/27 06:53:00;;;;;;;6.15;3.33;;;2.40;99.90;;;;;;5046619;28;20120;-40
2023/01/27 06:55:27;;;;;;;3.75;2.55;;;2.30;99.90;;;;;;5046487;28;20044;-40
2023/01/27 06:57:52;;;;;;;7.45;3.10;;;2.40;99.90;;;;;;5046524;28;20053;-40
2023/01/27 07:00:18;;;;;;;5.53;3.13;;;2.40;99.90;;;;;;5046904;28;20471;-40
2023/01/27 07:02:44;;;;;;;7.00;3.17;;;2.50;99.90;;;;;;5046726;28;20055;-40
2023/01/27 07:05:10;;;;;;;8.57;3.10;;;2.40;99.90;;;;;;5045892;28;20042;-40
2023/01/27 07:07:37;;;;;;;7.03;2.75;;;2.70;99.90;;;;;;5046478;28;20045;-40
2023/01/27 07:10:03;;;;;;;9.90;3.40;;;2.40;99.90;;;;;;5046636;28;20036;-40
2023/01/27 07:12:29;;;;;;;7.28;3.20;;;2.50;99.90;;;;;;5046052;28;20044;-40
2023/01/27 07:14:54;;;;;;;8.93;2.90;;;2.70;99.90;;;;;;5046359;28;20045;-40
2023/01/27 07:17:20;;;;;;;4.10;2.55;;;2.40;99.90;;;;;;5046471;28;20049;-40
2023/01/27 07:19:46;;;;;;;8.32;3.30;;;2.50;99.90;;;;;;5046838;28;20375;-40
2023/01/27 07:22:11;;;;;;;7.32;2.75;;;2.40;99.90;;;;;;5046604;28;20453;-40
2023/01/27 07:24:37;;;;;;;7.68;3.20;;;2.40;99.90;;;;;;5046652;28;20467;-40
2023/01/27 07:27:03;;;;;;;8.77;3.08;;;2.40;99.90;;;;;;5046497;28;20715;-40
2023/01/27 07:29:28;;;;;;;6.95;3.35;;;2.50;99.90;;;;;;5046324;28;20083;-40
2023/01/27 07:31:54;;;;;;;7.28;3.92;;;2.50;99.90;;;;;;5046662;28;20479;-40
2023/01/27 07:34:20;;;;;;;7.80;3.63;;;2.50;99.90;;;;;;5045905;28;20384;-40
2023/01/27 07:36:45;;;;;;;5.32;3.35;;;3.10;99.90;;;;;;5044185;28;20056;-40
2023/01/27 07:39:11;;;;;;;6.28;3.30;;;2.50;99.90;;;;;;5045575;28;20049;-40
2023/01/27 07:41:36;;;;;;;7.43;2.88;;;2.50;99.90;;;;;;5045630;28;20537;-40
2023/01/27 07:44:02;;;;;;;11.13;3.17;;;2.60;99.90;;;;;;5027699;28;20507;-40
2023/01/27 07:46:28;;;;;;;8.15;3.03;;;2.60;99.90;;;;;;5044186;28;20668;-40
2023/01/27 07:48:54;;;;;;;9.35;3.33;;;2.50;99.90;;;;;;5045503;28;20045;-40
2023/01/27 07:51:19;;;;;;;7.55;3.10;;;2.60;99.90;;;;;;5045940;28;20045;-40
2023/01/27 07:53:45;;;;;;;6.20;2.70;;;3.30;99.90;;;;;;5045868;28;20114;-40
2023/01/27 07:56:11;;;;;;;6.80;2.88;;;2.60;99.90;;;;;;5045553;28;20072;-40
2023/01/27 07:58:41;;;;;;;7.03;3.35;;;2.60;99.90;;;;;;5027838;28;20036;-40
2023/01/27 08:01:08;;;;;;;5.90;3.72;;;2.50;99.90;;;;;;5045312;28;20041;-40
2023/01/27 08:03:35;;;;;;;9.15;3.28;;;2.60;99.90;;;;;;5045681;28;20048;-40
2023/01/27 08:06:11;;;;;;;6.68;3.67;;;2.60;99.90;;;;;;5045470;28;20732;-40
2023/01/27 08:08:37;;;;;;;8.20;3.13;;;2.70;99.90;;;;;;5048005;28;20507;-40
2023/01/27 08:11:09;;;;;;;9.65;3.90;;;2.70;99.90;;;;;;5049360;28;20063;-40
2023/01/27 08:13:35;;;;;;;6.88;3.50;;;2.70;99.90;;;;;;5049843;28;20170;-40
2023/01/27 08:16:04;;;;;;;8.95;3.95;;;2.90;99.90;;;;;;5049260;28;20044;-40
2023/01/27 08:18:30;;;;;;;6.63;3.88;;;2.90;99.90;;;;;;5048617;28;20306;-40
2023/01/27 08:20:59;;;;;;;8.32;4.45;;;2.90;99.90;;;;;;5049099;28;20120;-40
2023/01/27 08:23:25;;;;;;;5.80;3.65;;;2.90;99.90;;;;;;5048520;28;20053;-40
2023/01/27 08:25:59;;;;;;;8.23;4.45;;;2.90;99.90;;;;;;5049298;28;20044;-40
2023/01/27 08:28:27;;;;;;;7.28;4.05;;;2.90;99.90;;;;;;5048707;28;20854;-40
2023/01/27 08:30:53;;;;;;;9.27;4.60;;;3.00;99.90;;;;;;5049126;28;20148;-40
2023/01/27 08:33:22;;;;;;;11.48;5.05;;;3.00;99.90;;;;;;5048776;28;20121;-40
2023/01/27 08:35:49;;;;;;;7.97;4.57;;;3.00;99.90;;;;;;5049028;28;20063;-40
2023/01/27 08:38:17;;;;;;;9.73;4.82;;;3.00;99.90;;;;;;5049004;28;20056;-40
2023/01/27 08:40:44;;;;;;;13.88;4.63;;;3.00;99.90;;;;;;5048810;28;20866;-40
2023/01/27 08:43:10;;;;;;;10.32;4.90;;;3.00;99.90;;;;;;5048178;28;20162;-40
2023/01/27 08:45:36;;;;;;;11.27;5.00;;;3.10;99.90;;;;;;5047962;28;20037;-40
2023/01/27 08:48:04;;;;;;;8.25;4.43;;;3.10;99.90;;;;;;5048143;28;20099;-40
2023/01/27 08:50:30;;;;;;;12.00;5.47;;;3.30;99.90;;;;;;5048807;28;20044;-40
2023/01/27 08:52:57;;;;;;;9.23;5.30;;;3.20;99.90;;;;;;5049102;28;20095;-40
2023/01/27 08:55:27;;;;;;;9.32;4.70;;;3.20;99.90;;;;;;5048610;28;20702;-41
2023/01/27 08:57:53;;;;;;;8.80;4.97;;;3.40;99.90;;;;;;5048658;28;20087;-41
2023/01/27 09:00:19;;;;;;;7.93;5.20;;;3.50;99.90;;;;;;5048803;28;20091;-40
2023/01/27 09:02:46;;;;;;;9.45;5.13;;;3.70;99.90;;;;;;5049577;28;20053;-41
2023/01/27 09:05:12;;;;;;;11.43;5.43;;;3.60;99.90;;;;;;5049275;28;20091;-41
2023/01/27 09:07:38;;;;;;;8.38;4.70;;;3.70;99.90;;;;;;5049506;28;20037;-40
2023/01/27 09:10:05;;;;;;;14.30;5.22;;;3.80;99.90;;;;;;5049073;28;20371;-41
2023/01/27 09:12:31;;;;;;;10.65;6.03;;;3.80;99.90;;;;;;5048417;28;20060;-41
2023/01/27 09:14:57;;;;;;;12.50;5.20;;;3.80;99.90;;;;;;5048402;28;20084;-41
2023/01/27 09:17:26;;;;;;;6.50;4.53;;;3.90;99.90;;;;;;5048233;28;20084;-41
2023/01/27 09:19:52;;;;;;;10.50;4.88;;;4.00;99.90;;;;;;5046975;28;20071;-41
2023/01/27 09:22:17;;;;;;;10.55;5.07;;;4.00;99.90;;;;;;5047678;28;20498;-41
2023/01/27 09:24:43;;;;;;;8.02;4.93;;;4.10;99.90;;;;;;5048145;28;20045;-40
2023/01/27 09:27:09;;;;;;;7.88;4.57;;;4.40;99.90;;;;;;5047636;28;20410;-41
2023/01/27 09:29:35;;;;;;;10.85;5.07;;;4.50;99.90;;;;;;5047942;28;20045;-40
2023/01/27 09:32:02;;;;;;;8.10;4.70;;;4.60;99.90;;;;;;5048032;28;20449;-41
2023/01/27 09:34:27;;;;;;;8.75;4.88;;;4.60;99.90;;;;;;5047285;28;20048;-41
2023/01/27 09:37:04;;;;;;;11.32;4.20;;;5.30;99.90;;;;;;5047387;28;20395;-41
2023/01/27 09:39:35;;;;;;;8.32;3.88;;;4.50;99.90;;;;;;5047804;28;20041;-41
2023/01/27 09:42:20;;;;;;;7.22;3.20;;;4.80;99.90;;;;;;5047701;28;20807;-41
2023/01/27 09:45:27;;;;;;;6.50;3.13;;;4.50;99.90;;;;;;5047724;28;20033;-40
2023/01/27 09:48:12;;;;;;;6.05;2.90;;;4.60;99.90;;;;;;5047942;28;20118;-40
2023/01/27 09:51:13;;;;;;;7.50;2.80;;;4.60;99.90;;;;;;5047664;28;20049;-40
2023/01/27 09:53:57;;;;;;;6.80;3.40;;;4.80;99.90;;;;;;5047277;28;20117;-40
2023/01/27 09:56:31;;;;;;;5.28;2.45;;;4.40;99.90;;;;;;5047905;28;20065;-41
2023/01/27 09:59:08;;;;;;;7.38;2.65;;;4.40;99.90;;;;;;5047622;28;20494;-41
2023/01/27 10:01:58;;;;;;;15.52;2.83;;;4.30;99.90;;;;;;5046109;28;20057;-40
2023/01/27 10:04:33;;;;;;;4.40;2.60;;;4.20;99.90;;;;;;5029500;28;20087;-40
2023/01/27 10:07:32;;;;;;;4.13;2.40;;;4.20;99.90;;;;;;5047725;28;20037;-41
2023/01/27 10:10:18;;;;;;;7.90;2.60;;;4.20;99.90;;;;;;5047520;28;20458;-41
2023/01/27 10:12:46;;;;;;;4.30;2.67;;;4.20;99.90;;;;;;5033453;28;20063;-41
2023/01/27 10:15:15;;;;;;;5.55;3.45;;;4.20;99.90;;;;;;5045922;28;20052;-41
2023/01/27 10:18:08;;;;;;;6.43;2.22;;;4.10;99.90;;;;;;5047149;28;20127;-41
2023/01/27 10:20:40;;;;;;;3.30;1.70;;;4.10;99.90;;;;;;5046768;28;20046;-40
2023/01/27 10:23:31;;;;;;;5.20;2.13;;;4.30;99.90;;;;;;5046915;28;20052;-41
2023/01/27 10:26:17;;;;;;;3.33;1.80;;;4.10;99.90;;;;;;5046786;28;20044;-41
2023/01/27 10:28:49;;;;;;;4.88;1.75;;;4.10;99.90;;;;;;5047033;28;20048;-40
2023/01/27 10:31:25;;;;;;;5.18;2.22;;;4.20;99.90;;;;;;5047056;28;20044;-41
2023/01/27 10:33:57;;;;;;;4.05;1.42;;;4.00;99.90;;;;;;5047008;28;20477;-41
2023/01/27 10:36:52;;;;;;;2.58;1.48;;;4.00;99.90;;;;;;5045895;28;20149;-41
2023/01/27 10:39:48;;;;;;;2.45;1.35;;;4.10;99.90;;;;;;5046445;28;20471;-40
2023/01/27 10:42:37;;;;;;;3.33;1.40;;;4.20;99.90;;;;;;5046428;28;20377;-41
2023/01/27 10:45:18;;;;;;;3.28;1.65;;;3.90;99.90;;;;;;5045516;28;20052;-41
2023/01/27 10:48:08;;;;;;;3.05;1.15;;;3.90;99.90;;;;;;5047011;28;20656;-41
2023/01/27 10:51:15;;;;;;;2.50;1.38;;;3.80;99.90;;;;;;5046793;28;20067;-40
2023/01/27 10:53:57;;;;;;;3.03;1.42;;;3.90;99.90;;;;;;4964640;28;20433;-41
2023/01/27 10:56:46;;;;;;;3.03;1.73;;;3.80;99.90;;;;;;5042111;28;20373;-41
2023/01/27 10:59:28;;;;;;;2.88;1.80;;;3.80;99.90;;;;;;5046848;28;20120;-41
2023/01/27 11:02:13;;;;;;;3.03;1.50;;;3.80;99.90;;;;;;5045086;28;20088;-41
2023/01/27 11:04:45;;;;;;;2.70;1.50;;;4.70;99.90;;;;;;5046073;28;20048;-41
2023/01/27 11:07:20;;;;;;;3.55;1.70;;;3.60;99.90;;;;;;5046708;28;20056;-41
2023/01/27 11:10:07;;;;;;;3.58;1.98;;;3.90;99.90;;;;;;5046431;28;20099;-40
2023/01/27 11:12:36;;;;;;;3.03;2.05;;;3.80;99.90;;;;;;5046026;28;20067;-41
2023/01/27 11:15:19;;;;;;;2.90;2.28;;;4.00;99.90;;;;;;5046520;28;20094;-41
2023/01/27 11:18:11;;;;;;;3.03;1.65;;;3.90;99.90;;;;;;5045977;28;20482;-41
2023/01/27 11:20:44;;;;;;;2.00;1.52;;;3.80;99.90;;;;;;5046321;28;20411;-40
2023/01/27 11:23:16;;;;;;;4.15;1.48;;;3.80;99.90;;;;;;5046664;28;20716;-40
2023/01/27 11:25:51;;;;;;;1.90;1.15;;;3.90;99.90;;;;;;5045959;28;20042;-40
2023/01/27 11:29:02;;;;;;;3.55;1.40;;;3.90;99.90;;;;;;5046135;28;20053;-40
2023/01/27 11:31:31;;;;;;;2.78;1.67;;;4.00;99.90;;;;;;5044273;28;20410;-40
2023/01/27 11:34:06;;;;;;;2.72;1.50;;;3.90;99.90;;;;;;5046109;28;20051;-40
2023/01/27 11:36:33;;;;;;;4.43;2.08;;;4.10;99.90;;;;;;5045999;28;20510;-40
2023/01/27 11:39:02;;;;;;;3.10;1.88;;;4.10;99.90;;;;;;5046359;28;20047;-40
2023/01/27 11:41:28;;;;;;;2.88;2.10;;;4.10;99.90;;;;;;5046025;28;20037;-40
2023/01/27 11:43:54;;;;;;;2.88;1.90;;;4.20;99.90;;;;;;5048983;28;20043;-40
2023/01/27 11:46:23;;;;;;;3.22;1.58;;;4.20;99.90;;;;;;5049819;28;20119;-40
2023/01/27 11:48:53;;;;;;;4.28;1.80;;;4.50;99.90;;;;;;5049632;28;20075;-41
2023/01/27 11:51:23;;;;;;;3.85;2.03;;;4.30;99.90;;;;;;5049680;28;20117;-41
2023/01/27 11:54:18;;;;;;;5.15;1.70;;;4.30;99.90;;;;;;5049354;28;20390;-40
2023/01/27 11:56:47;;;;;;;2.65;1.80;;;4.70;99.90;;;;;;5048292;28;20049;-40
2023/01/27 11:59:16;;;;;;;2.42;2.00;;;4.40;99.90;;;;;;5049235;28;20521;-40
2023/01/27 12:01:56;;;;;;;2.88;1.50;;;4.30;99.90;;;;;;5049384;28;20056;-41
2023/01/27 12:04:33;;;;;;;2.53;1.55;;;4.60;99.90;;;;;;5049546;28;20114;-41
2023/01/27 12:07:04;;;;;;;3.08;1.55;;;4.20;99.90;;;;;;5049204;28;20125;-40
2023/01/27 12:09:38;;;;;;;3.08;1.20;;;3.10;99.90;;;;;;5049293;28;20040;-41
2023/01/27 12:12:20;;;;;;;2.08;1.40;;;4.30;99.90;;;;;;5049036;28;20589;-40
2023/01/27 12:14:57;;;;;;;1.50;1.00;;;4.40;99.90;;;;;;5049153;28;20044;-40
2023/01/27 12:17:29;;;;;;;2.33;1.08;;;4.30;99.90;;;;;;5048966;28;20056;-41
2023/01/27 12:19:59;;;;;;;1.42;0.73;;;4.40;99.90;;;;;;5049100;28;20047;-41
2023/01/27 12:22:35;;;;;;;1.30;0.57;;;4.40;99.90;;;;;;5049003;28;20140;-41
2023/01/27 12:25:07;;;;;;;1.08;0.40;;;4.40;99.90;;;;;;5048740;28;20480;-40
2023/01/27 12:27:40;;;;;;;2.00;0.50;;;4.60;99.90;;;;;;5049255;28;20045;-40
2023/01/27 12:30:16;;;;;;;0.93;0.30;;;4.50;99.90;;;;;;5049187;28;20158;-41
2023/01/27 12:32:46;;;;;;;0.80;0.40;;;4.40;99.90;;;;;;5049002;28;20049;-41
2023/01/27 12:35:17;;;;;;;0.90;0.40;;;4.50;99.90;;;;;;5048681;28;20041;-41
2023/01/27 12:37:44;;;;;;;1.58;0.50;;;4.40;99.90;;;;;;5049274;28;20040;-41
2023/01/27 12:40:19;;;;;;;1.23;0.40;;;4.50;99.90;;;;;;5049711;28;20049;-40
2023/01/27 12:42:52;;;;;;;0.90;0.50;;;4.40;99.90;;;;;;5049129;28;20806;-41
2023/01/27 12:45:24;;;;;;;1.38;0.70;;;4.50;99.90;;;;;;5049430;28;20115;-40
2023/01/27 12:48:16;;;;;;;1.45;0.60;;;4.40;99.90;;;;;;5049048;28;20084;-40
2023/01/27 12:50:54;;;;;;;1.15;0.40;;;4.40;99.90;;;;;;5049542;28;20131;-41
2023/01/27 12:53:26;;;;;;;1.02;0.45;;;4.40;99.90;;;;;;5049379;28;20114;-41
2023/01/27 12:56:03;;;;;;;1.02;0.40;;;4.40;99.90;;;;;;5049289;28;20045;-41
2023/01/27 12:58:34;;;;;;;1.85;0.50;;;4.30;99.90;;;;;;5049478;28;20053;-41
2023/01/27 13:01:23;;;;;;;1.63;0.40;;;4.50;99.90;;;;;;5049199;28;20107;-41
2023/01/27 13:03:56;;;;;;;1.95;0.50;;;4.40;99.90;;;;;;5036527;28;20110;-41
2023/01/27 13:06:40;;;;;;;1.30;0.70;;;4.40;99.90;;;;;;5049326;28;20033;-41
2023/01/27 13:09:36;;;;;;;1.15;0.73;;;4.30;99.90;;;;;;5049389;28;20048;-41
2023/01/27 13:12:29;;;;;;;2.03;0.60;;;4.30;99.90;;;;;;5048887;28;20063;-41
2023/01/27 13:14:58;;;;;;;1.27;0.50;;;4.30;99.90;;;;;;5038400;28;20052;-41
2023/01/27 13:17:47;;;;;;;0.90;0.50;;;5.30;99.90;;;;;;5048457;28;20037;-41
2023/01/27 13:20:27;;;;;;;2.08;0.80;;;4.30;99.90;;;;;;5048465;28;20053;-41
2023/01/27 13:23:02;;;;;;;1.20;0.60;;;4.20;99.90;;;;;;5048258;28;20098;-41
2023/01/27 13:25:53;;;;;;;1.42;0.75;;;4.30;99.90;;;;;;5047884;28;20041;-41
2023/01/27 13:28:31;;;;;;;2.40;0.63;;;4.30;99.90;;;;;;5048408;28;20059;-41
2023/01/27 13:31:02;;;;;;;1.60;0.80;;;4.50;99.90;;;;;;5048217;28;20045;-40
2023/01/27 13:33:31;;;;;;;2.03;0.98;;;4.40;99.90;;;;;;5048261;28;20044;-41
2023/01/27 13:36:06;;;;;;;2.22;1.55;;;4.50;99.90;;;;;;5047152;28;20099;-41
2023/01/27 13:38:47;;;;;;;2.67;1.73;;;4.30;99.90;;;;;;5047906;28;20651;-41
2023/01/27 13:41:21;;;;;;;2.10;1.38;;;4.20;99.90;;;;;;5047432;28;20045;-40
2023/01/27 13:43:58;;;;;;;2.10;1.40;;;4.40;99.90;;;;;;5048470;28;20048;-41
2023/01/27 13:46:32;;;;;;;1.90;1.10;;;4.30;99.90;;;;;;5048170;28;20041;-41
2023/01/27 13:49:11;;;;;;;2.00;1.40;;;4.20;99.90;;;;;;5047887;28;20124;-41